createdAt,value
2022-10-14T00:02:36.158Z,101465.38
2022-10-14T00:05:42.115Z,101466.28
2022-10-14T00:08:47.609Z,101456.66
2022-10-14T00:11:52.266Z,101456.66
2022-10-14T00:14:56.610Z,101455.88
2022-10-14T00:18:00.862Z,101455.94
2022-10-14T00:21:05.624Z,101459.28
2022-10-14T00:24:13.266Z,101461.16
2022-10-14T00:27:17.406Z,101447.97
2022-10-14T00:30:21.578Z,101446.13
2022-10-14T00:33:27.604Z,101449.63
2022-10-14T00:36:32.064Z,101443.47
2022-10-14T00:39:36.634Z,101441.88
2022-10-14T00:42:41.058Z,101442.84
2022-10-14T00:45:45.473Z,101447.28
2022-10-14T00:48:49.952Z,101442.06
2022-10-14T00:52:17.590Z,101446.56
2022-10-14T00:55:22.228Z,101449.09
2022-10-14T00:58:26.504Z,101441.38
2022-10-14T01:01:30.758Z,101447.34
2022-10-14T01:04:40.876Z,101448.25
2022-10-14T01:08:21.035Z,101454.47
2022-10-14T01:12:00.146Z,101457.13
2022-10-14T01:15:31.249Z,101456.22
2022-10-14T01:18:47.252Z,101458.78
2022-10-14T01:22:11.944Z,101458.03
2022-10-14T01:26:08.288Z,101454.13
2022-10-14T01:29:41.993Z,101453.81
2022-10-14T01:33:19.838Z,101451.31
2022-10-14T01:36:44.223Z,101453.94
2022-10-14T01:39:57.891Z,101450.53
2022-10-14T01:43:04.515Z,101458.38
2022-10-14T01:46:12.256Z,101454.13
2022-10-14T01:49:27.632Z,101451.41
2022-10-14T01:52:41.314Z,101450.63
2022-10-14T01:55:47.938Z,101448.84
2022-10-14T01:58:54.281Z,101443.72
2022-10-14T02:01:58.567Z,101447.28
2022-10-14T02:05:11.567Z,101453.47
2022-10-14T02:08:45.421Z,101447.41
2022-10-14T02:12:11.267Z,101445.78
2022-10-14T02:15:33.934Z,101444.16
2022-10-14T02:19:25.410Z,101436.31
2022-10-14T02:22:46.671Z,101436.38
2022-10-14T02:25:52.112Z,101438.19
2022-10-14T02:28:58.275Z,101444.28
2022-10-14T02:32:04.826Z,101440.81
2022-10-14T02:35:12.013Z,101437.41
2022-10-14T02:38:19.607Z,101433.03
2022-10-14T02:41:28.040Z,101433.97
2022-10-14T02:44:32.440Z,101432.03
2022-10-14T02:47:37.042Z,101436.47
2022-10-14T02:50:42.383Z,101428.69
2022-10-14T02:53:46.532Z,101428.63
2022-10-14T02:56:51.035Z,101423.47
2022-10-14T02:59:55.840Z,101424.41
2022-10-14T03:03:00.307Z,101421.78
2022-10-14T03:06:04.862Z,101412.94
2022-10-14T03:09:09.121Z,101412.84
2022-10-14T03:12:13.310Z,101405.88
2022-10-14T03:15:17.814Z,101411.38
2022-10-14T03:18:22.238Z,101411.25
2022-10-14T03:21:26.859Z,101414.78
2022-10-14T03:24:30.878Z,101416.34
2022-10-14T03:27:35.344Z,101415.53
2022-10-14T03:30:40.516Z,101418.09
2022-10-14T03:33:45.066Z,101412.06
2022-10-14T03:36:49.203Z,101417.34
2022-10-14T03:39:53.324Z,101415.78
2022-10-14T03:43:02.035Z,101417.56
2022-10-14T03:46:06.305Z,101416.78
2022-10-14T03:49:10.874Z,101410.88
2022-10-14T03:52:15.483Z,101409.94
2022-10-14T03:55:19.911Z,101411.66
2022-10-14T03:58:24.059Z,101408.41
2022-10-14T04:01:28.439Z,101411.94
2022-10-14T04:04:32.892Z,101411.03
2022-10-14T04:07:37.682Z,101409.31
2022-10-14T04:10:42.012Z,101409.31
2022-10-14T04:13:46.468Z,101409.38
2022-10-14T04:16:50.555Z,101405.97
2022-10-14T04:19:54.891Z,101407.63
2022-10-14T04:23:02.199Z,101403.84
2022-10-14T04:26:09.824Z,101401.13
2022-10-14T04:29:13.966Z,101406.41
2022-10-14T04:32:18.511Z,101403.69
2022-10-14T04:35:23.071Z,101397.47
2022-10-14T04:38:28.707Z,101399.13
2022-10-14T04:41:33.185Z,101399.13
2022-10-14T04:44:37.610Z,101393.88
2022-10-14T04:47:46.177Z,101390.34
2022-10-14T04:50:54.199Z,101394.72
2022-10-14T04:53:58.781Z,101385.97
2022-10-14T04:57:03.272Z,101387.91
2022-10-14T05:00:09.081Z,101381.81
2022-10-14T05:03:13.276Z,101380.84
2022-10-14T05:06:18.193Z,101377.38
2022-10-14T05:09:22.361Z,101386.19
2022-10-14T05:12:27.502Z,101372.19
2022-10-14T05:15:31.868Z,101373.22
2022-10-14T05:18:36.463Z,101367.84
2022-10-14T05:21:40.981Z,101366.00
2022-10-14T05:24:45.404Z,101363.59
2022-10-14T05:27:49.869Z,101357.31
2022-10-14T05:30:54.200Z,101357.31
2022-10-14T05:33:58.536Z,101351.13
2022-10-14T05:37:03.496Z,101355.41
2022-10-14T05:40:09.143Z,101352.78
2022-10-14T05:43:13.877Z,101351.75
2022-10-14T05:46:18.845Z,101357.03
2022-10-14T05:49:23.600Z,101363.13
2022-10-14T05:52:33.467Z,101364.84
2022-10-14T05:55:38.843Z,101366.63
2022-10-14T05:58:43.129Z,101362.16
2022-10-14T06:01:47.487Z,101364.78
2022-10-14T06:04:52.227Z,101367.31
2022-10-14T06:07:56.405Z,101368.16
2022-10-14T06:11:04.697Z,101366.41
2022-10-14T06:14:09.366Z,101368.19
2022-10-14T06:17:13.859Z,101367.31
2022-10-14T06:20:18.081Z,101364.84
2022-10-14T06:23:22.621Z,101359.59
2022-10-14T06:26:27.641Z,101357.72
2022-10-14T06:29:37.737Z,101363.13
2022-10-14T06:32:42.085Z,101358.75
2022-10-14T06:35:47.675Z,101358.59
2022-10-14T06:38:52.612Z,101359.50
2022-10-14T06:41:57.273Z,101351.63
2022-10-14T06:45:01.857Z,101348.06
2022-10-14T06:48:06.912Z,101354.06
2022-10-14T06:51:11.524Z,101348.06
2022-10-14T06:54:17.330Z,101351.50
2022-10-14T06:57:21.647Z,101344.38
2022-10-14T07:00:25.969Z,101344.38
2022-10-14T07:03:30.362Z,101346.09
2022-10-14T07:06:36.023Z,101342.25
2022-10-14T07:09:40.747Z,101343.25
2022-10-14T07:12:45.163Z,101344.72
2022-10-14T07:15:50.227Z,101345.34
2022-10-14T07:18:54.487Z,101346.22
2022-10-14T07:21:58.737Z,101345.34
2022-10-14T07:25:04.845Z,101349.63
2022-10-14T07:28:09.811Z,101348.63
2022-10-14T07:31:15.144Z,101359.94
2022-10-14T07:34:19.679Z,101364.28
2022-10-14T07:37:24.812Z,101364.13
2022-10-14T07:40:29.282Z,101365.69
2022-10-14T07:43:36.105Z,101371.88
2022-10-14T07:46:44.893Z,101373.53
2022-10-14T07:49:49.775Z,101365.69
2022-10-14T07:52:57.767Z,101379.84
2022-10-14T07:56:05.542Z,101374.59
2022-10-14T07:59:10.973Z,101371.94
2022-10-14T08:02:15.524Z,101377.84
2022-10-14T08:05:36.984Z,101372.50
2022-10-14T08:08:44.141Z,101372.34
2022-10-14T08:11:49.029Z,101370.81
2022-10-14T08:14:57.869Z,101375.94
2022-10-14T08:18:02.318Z,101369.09
2022-10-14T08:21:07.170Z,101360.22
2022-10-14T08:24:12.491Z,101361.13
2022-10-14T08:27:20.574Z,101364.59
2022-10-14T08:30:25.732Z,101361.28
2022-10-14T08:33:30.755Z,101360.44
2022-10-14T08:36:35.611Z,101356.16
2022-10-14T08:39:40.169Z,101352.59
2022-10-14T08:43:24.195Z,101349.75
2022-10-14T08:46:55.800Z,101345.63
2022-10-14T08:50:30.512Z,101356.69
2022-10-14T08:53:43.356Z,101350.22
2022-10-14T08:56:47.787Z,101359.38
2022-10-14T08:59:53.377Z,101361.94
2022-10-14T09:03:00.051Z,101377.38
2022-10-14T09:06:11.307Z,101368.59
2022-10-14T09:09:26.383Z,101373.00
2022-10-14T09:12:35.684Z,101371.16
2022-10-14T09:15:44.977Z,101367.59
2022-10-14T09:18:55.494Z,101364.03
2022-10-14T09:22:01.724Z,101365.88
2022-10-14T09:25:15.446Z,101365.94
2022-10-14T09:28:19.813Z,101363.16
2022-10-14T09:31:24.236Z,101363.88
2022-10-14T09:34:48.504Z,101363.25
2022-10-14T09:37:53.261Z,101367.53
2022-10-14T09:40:59.906Z,101367.53
2022-10-14T09:44:22.002Z,101351.72
2022-10-14T09:47:29.206Z,101345.41
2022-10-14T09:50:48.409Z,101345.34
2022-10-14T09:53:57.360Z,101335.66
2022-10-14T09:57:08.632Z,101349.53
2022-10-14T10:00:29.354Z,101344.13
2022-10-14T10:03:35.662Z,101350.84
2022-10-14T10:06:53.734Z,101340.06
2022-10-14T10:10:17.482Z,101344.19
2022-10-14T10:13:31.550Z,101344.00
2022-10-14T10:16:36.003Z,101342.16
2022-10-14T10:19:48.281Z,101336.38
2022-10-14T10:22:52.626Z,101341.31
2022-10-14T10:26:21.039Z,101337.06
2022-10-14T10:29:35.336Z,101332.47
2022-10-14T10:32:56.288Z,101336.56
2022-10-14T10:36:51.382Z,101327.69
2022-10-14T10:40:06.573Z,101328.66
2022-10-14T10:43:57.494Z,101326.44
2022-10-14T10:47:32.728Z,101327.59
2022-10-14T10:50:58.341Z,101326.69
2022-10-14T10:54:18.553Z,101330.00
2022-10-14T10:58:20.053Z,101318.34
2022-10-14T11:02:05.223Z,101319.75
2022-10-14T11:05:15.983Z,101330.16
2022-10-14T11:09:13.940Z,101323.75
2022-10-14T11:12:52.645Z,101323.19
2022-10-14T11:16:27.149Z,101316.53
2022-10-14T11:19:52.756Z,101311.44
2022-10-14T11:23:24.726Z,101310.75
2022-10-14T11:26:59.595Z,101316.03
2022-10-14T11:30:18.572Z,101311.44
2022-10-14T11:33:37.463Z,101302.59
2022-10-14T11:37:06.260Z,101298.50
2022-10-14T11:40:54.584Z,101295.59
2022-10-14T11:44:00.952Z,101296.38
2022-10-14T11:47:19.835Z,101286.59
2022-10-14T11:50:32.217Z,101288.47
2022-10-14T11:54:03.587Z,101291.34
2022-10-14T11:57:35.451Z,101287.88
2022-10-14T12:01:01.530Z,101287.25
2022-10-14T12:04:19.202Z,101293.22
2022-10-14T12:07:34.663Z,101273.88
2022-10-14T12:10:47.720Z,101266.06
2022-10-14T12:14:00.687Z,101261.56
2022-10-14T12:17:18.781Z,101251.00
2022-10-14T12:20:35.528Z,101247.41
2022-10-14T12:23:59.306Z,101233.63
2022-10-14T12:27:09.517Z,101217.97
2022-10-14T12:30:38.051Z,101209.38
2022-10-14T12:34:11.722Z,101197.03
2022-10-14T12:37:28.811Z,101199.06
2022-10-14T12:40:36.728Z,101192.94
2022-10-14T12:43:42.088Z,101192.06
2022-10-14T12:46:51.529Z,101179.66
2022-10-14T12:49:58.747Z,101173.25
2022-10-14T12:53:17.434Z,101151.88
2022-10-14T12:56:42.098Z,101131.09
2022-10-14T12:59:51.593Z,101123.81
2022-10-14T13:03:01.806Z,101116.16
2022-10-14T13:06:31.189Z,101111.66
2022-10-14T13:09:36.023Z,101107.31
2022-10-14T13:12:42.075Z,101093.47
2022-10-14T13:15:52.372Z,101095.84
2022-10-14T13:19:04.806Z,101088.84
2022-10-14T13:22:44.898Z,101079.16
2022-10-14T13:25:52.066Z,101076.97
2022-10-14T13:29:12.787Z,101057.63
2022-10-14T13:33:01.575Z,101057.69
2022-10-14T13:36:08.851Z,101050.34
2022-10-14T13:39:13.213Z,101054.44
2022-10-14T13:42:45.335Z,101049.91
2022-10-14T13:45:59.278Z,101036.03
2022-10-14T13:49:08.157Z,101020.09
2022-10-14T13:52:24.220Z,101021.13
2022-10-14T13:55:30.258Z,101006.59
2022-10-14T13:58:34.749Z,101001.41
2022-10-14T14:01:39.735Z,100992.09
2022-10-14T14:04:55.247Z,100986.13
2022-10-14T14:11:37.357Z,100969.09
2022-10-14T14:14:43.454Z,100967.69
2022-10-14T14:17:48.230Z,100957.69
2022-10-14T14:21:00.659Z,100954.88
2022-10-14T14:24:17.877Z,100961.66
2022-10-14T14:27:26.555Z,100965.91
2022-10-14T14:30:38.950Z,100970.13
2022-10-14T14:33:45.065Z,100975.13
2022-10-14T14:36:55.234Z,100966.38
2022-10-14T14:40:18.542Z,100966.22
2022-10-14T14:43:24.143Z,100956.53
2022-10-14T14:46:40.215Z,100952.22
2022-10-14T14:49:46.209Z,100949.81
2022-10-14T14:52:52.528Z,100938.88
2022-10-14T14:56:02.410Z,100935.66
2022-10-14T14:59:42.234Z,100939.22
2022-10-14T15:02:50.296Z,100937.03
2022-10-14T15:06:02.081Z,100925.66
2022-10-14T15:09:41.694Z,100933.81
2022-10-14T15:12:54.029Z,100930.34
2022-10-14T15:15:58.562Z,100923.44
2022-10-14T15:19:19.123Z,100927.69
2022-10-14T15:22:31.398Z,100913.25
2022-10-14T15:25:36.117Z,100907.16
2022-10-14T15:28:40.565Z,100914.13
2022-10-14T15:32:14.205Z,100913.16
2022-10-14T15:35:21.260Z,100913.06
2022-10-14T15:38:26.504Z,100909.88
2022-10-14T15:41:31.184Z,100909.88
2022-10-14T15:44:35.353Z,100909.78
2022-10-14T15:47:40.491Z,100909.59
2022-10-14T15:50:47.187Z,100899.97
2022-10-14T15:53:52.003Z,100900.16
2022-10-14T15:56:58.045Z,100893.38
2022-10-14T16:00:02.986Z,100901.47
2022-10-14T16:03:09.949Z,100900.91
2022-10-14T16:06:15.551Z,100899.19
2022-10-14T16:09:19.818Z,100895.88
2022-10-14T16:12:24.263Z,100896.16
2022-10-14T16:15:31.328Z,100894.44
2022-10-14T16:18:35.707Z,100893.78
2022-10-14T16:21:40.414Z,100893.78
2022-10-14T16:24:44.758Z,100886.13
2022-10-14T16:27:48.938Z,100890.66
2022-10-14T16:30:53.460Z,100888.94
2022-10-14T16:33:58.252Z,100886.50
2022-10-14T16:37:02.964Z,100888.19
2022-10-14T16:40:10.219Z,100883.88
2022-10-14T16:43:14.531Z,100877.56
2022-10-14T16:46:19.032Z,100879.88
2022-10-14T16:49:23.357Z,100876.50
2022-10-14T16:52:27.847Z,100881.09
2022-10-14T16:55:32.206Z,100872.13
2022-10-14T16:58:36.296Z,100866.28
2022-10-14T17:01:40.806Z,100865.94
2022-10-14T17:04:46.583Z,100855.50
2022-10-14T17:07:50.973Z,100848.09
2022-10-14T17:10:58.152Z,100851.13
2022-10-14T17:14:02.858Z,100839.75
2022-10-14T17:17:07.183Z,100846.19
2022-10-14T17:20:11.555Z,100840.53
2022-10-14T17:23:15.827Z,100835.59
2022-10-14T17:26:20.884Z,100840.88
2022-10-14T17:29:25.463Z,100830.94
2022-10-14T17:32:30.191Z,100836.97
2022-10-14T17:35:34.427Z,100829.16
2022-10-14T17:38:38.624Z,100826.59
2022-10-14T17:41:43.028Z,100815.66
2022-10-14T17:44:47.689Z,100811.06
2022-10-14T17:47:55.298Z,100808.53
2022-10-14T17:50:59.816Z,100807.00
2022-10-14T17:54:07.881Z,100799.88
2022-10-14T17:57:12.294Z,100803.34
2022-10-14T18:00:16.655Z,100807.19
2022-10-14T18:03:21.010Z,100808.53
2022-10-14T18:06:28.981Z,100809.56
2022-10-14T18:09:34.629Z,100798.81
2022-10-14T18:12:39.282Z,100789.50
2022-10-14T18:15:44.791Z,100791.22
2022-10-14T18:18:49.001Z,100793.25
2022-10-14T18:21:53.362Z,100791.22
2022-10-14T18:24:57.456Z,100787.97
2022-10-14T18:28:01.768Z,100795.38
2022-10-14T18:31:19.501Z,100797.84
2022-10-14T18:34:25.406Z,100795.13
2022-10-14T18:37:29.752Z,100786.88
2022-10-14T18:40:34.362Z,100787.97
2022-10-14T18:43:39.380Z,100769.75
2022-10-14T18:46:44.017Z,100778.31
2022-10-14T18:49:49.725Z,100776.34
2022-10-14T18:52:56.050Z,100775.25
2022-10-14T18:56:34.880Z,100769.22
2022-10-14T18:59:39.308Z,100763.03
2022-10-14T19:02:43.622Z,100758.50
2022-10-14T19:05:48.099Z,100756.63
2022-10-14T19:08:53.318Z,100755.69
2022-10-14T19:11:59.162Z,100755.53
2022-10-14T19:15:04.580Z,100750.81
2022-10-14T19:18:11.221Z,100748.28
2022-10-14T19:21:19.401Z,100737.09
2022-10-14T19:24:23.468Z,100736.50
2022-10-14T19:27:28.020Z,100725.00
2022-10-14T19:30:32.436Z,100726.91
2022-10-14T19:33:42.838Z,100720.09
2022-10-14T19:36:46.944Z,100720.78
2022-10-14T19:39:51.191Z,100711.84
2022-10-14T19:42:55.511Z,100697.19
2022-10-14T19:45:59.685Z,100704.50
2022-10-14T19:49:04.730Z,100706.19
2022-10-14T19:52:09.484Z,100709.38
2022-10-14T19:55:14.111Z,100703.09
2022-10-14T19:58:18.639Z,100693.22
2022-10-14T20:01:25.613Z,100688.78
2022-10-14T20:04:30.246Z,100687.94
2022-10-14T20:07:34.776Z,100680.59
2022-10-14T20:10:39.176Z,100680.69
2022-10-14T20:13:46.991Z,100676.47
2022-10-14T20:16:53.711Z,100676.84
2022-10-14T20:20:03.778Z,100670.75
2022-10-14T20:23:14.256Z,100677.03
2022-10-14T20:26:21.776Z,100679.13
2022-10-14T20:29:26.413Z,100681.56
2022-10-14T20:32:30.878Z,100674.59
2022-10-14T20:35:38.832Z,100675.91
2022-10-14T20:38:48.254Z,100665.53
2022-10-14T20:41:53.452Z,100668.00
2022-10-14T20:44:57.799Z,100664.16
2022-10-14T20:48:02.431Z,100665.63
2022-10-14T20:51:11.957Z,100658.41
2022-10-14T20:54:16.731Z,100653.22
2022-10-14T20:57:24.523Z,100658.09
2022-10-14T21:00:30.396Z,100651.44
2022-10-14T21:03:35.440Z,100658.09
2022-10-14T21:06:41.449Z,100655.56
2022-10-14T21:09:47.621Z,100662.34
2022-10-14T21:12:52.234Z,100656.88
2022-10-14T21:16:00.080Z,100655.81
2022-10-14T21:19:08.129Z,100656.50
2022-10-14T21:22:12.656Z,100656.50
2022-10-14T21:25:17.314Z,100652.91
2022-10-14T21:28:21.979Z,100649.41
2022-10-14T21:31:28.159Z,100654.16
2022-10-14T21:34:32.711Z,100647.34
2022-10-14T21:37:36.927Z,100635.00
2022-10-14T21:40:41.699Z,100627.09
2022-10-14T21:43:46.387Z,100624.47
2022-10-14T21:46:53.633Z,100626.78
2022-10-14T21:49:58.453Z,100624.47
2022-10-14T21:53:02.603Z,100615.50
2022-10-14T21:56:07.967Z,100621.50
2022-10-14T21:59:13.067Z,100620.47
2022-10-14T22:02:17.789Z,100620.47
2022-10-14T22:05:23.206Z,100616.22
2022-10-14T22:08:33.544Z,100614.16
2022-10-14T22:11:41.161Z,100623.84
2022-10-14T22:14:45.683Z,100616.69
2022-10-14T22:17:50.233Z,100616.69
2022-10-14T22:21:07.111Z,100614.28
2022-10-14T22:24:12.001Z,100611.41
2022-10-14T22:27:16.764Z,100607.00
2022-10-14T22:30:21.228Z,100609.72
2022-10-14T22:33:25.314Z,100600.84
2022-10-14T22:36:30.845Z,100602.34
2022-10-14T22:39:35.318Z,100598.13
2022-10-14T22:42:42.237Z,100603.19
2022-10-14T22:45:47.060Z,100605.94
2022-10-14T22:48:56.795Z,100603.28
2022-10-14T22:52:01.005Z,100595.22
2022-10-14T22:55:06.462Z,100606.78
2022-10-14T22:58:10.753Z,100598.88
2022-10-14T23:01:16.723Z,100598.72
2022-10-14T23:04:20.998Z,100605.75
2022-10-14T23:07:25.751Z,100607.63
2022-10-14T23:10:29.988Z,100602.19
2022-10-14T23:13:34.760Z,100605.75
2022-10-14T23:16:39.451Z,100600.28
2022-10-14T23:19:43.632Z,100602.94
2022-10-14T23:22:48.141Z,100606.41
2022-10-14T23:25:52.507Z,100602.84
2022-10-14T23:28:59.132Z,100598.41
2022-10-14T23:32:03.573Z,100598.41
2022-10-14T23:35:08.199Z,100605.38
2022-10-14T23:38:13.461Z,100597.56
2022-10-14T23:41:18.484Z,100601.81
2022-10-14T23:44:23.180Z,100606.13
2022-10-14T23:47:27.839Z,100614.91
2022-10-14T23:50:32.128Z,100612.34
2022-10-14T23:53:36.549Z,100606.22
2022-10-14T23:56:40.898Z,100613.09
2022-10-14T23:59:45.314Z,100611.38
